METAR Data
IDs: Format: Raw Decoded Include TAF

Data at: 0218 UTC 24 Oct 2019

METAR for:KDSM (Des Moines Intl, IA, US)
Text:KDSM 240154Z 36011KT 10SM SCT013 BKN018 OVC028 05/03 A3009 RMK AO2 DZB41E51 SLP196 P0000 T00500028
Temperature: 5.0°C ( 41°F)
Dewpoint: 2.8°C ( 37°F) [RH = 86%]
Pressure (altimeter):30.09 inches Hg (1019.0 mb) [Sea level pressure: 1019.6 mb]
Winds:from the N (360 degrees) at 13 MPH (11 knots; 5.7 m/s)
Visibility:10 or more sm (16+ km)
Ceiling:1800 feet AGL
Clouds: scattered clouds at 1300 feet AGL, broken clouds at 1800 feet AGL, overcast cloud deck at 2800 feet AGL